Flight Track Log - Related Links

Times and Time Zones

All times are in EDT time to prevent confusion due to time zone crossing. See the N320CB flight status page for this flight to view local times or setup timezone preferences in your user account.

Time Position Orientation Groundspeed Altitude Reporting Facility
EDT Latitude Longitude Course Direction KTS MPH feet Rate Location/Type
Wed 06:57:48 PM 40.9000 -74.0333 157° South 207 238 2,000  Level New York TRACON
Wed 06:58:48 PM 40.9333 -74.1167 298° West 276 318 3,800 1,750 Climbing New York TRACON
Wed 06:59:48 PM 40.8833 -74.1833 225° Southwest 269 310 5,500 1,700 Climbing New York TRACON
Wed 07:00:48 PM 40.8167 -74.2167 201° Southwest 265 305 7,200 1,300 Climbing New York TRACON
Wed 07:01:48 PM 40.7500 -74.2500 201° Southwest 267 307 8,100 1,263 Climbing New York TRACON
Wed 07:02:42 PM 40.6833 -74.3000 210° Southwest 284 327 9,600 1,526 Climbing New York TRACON
Wed 07:03:00 PM 40.3269 -74.1557 157° South  Level FlightAware Approximate
Wed 07:03:42 PM 40.6167 -74.3333 201° Southwest 284 327 11,000  Level New York TRACON
Wed 07:04:42 PM 40.5500 -74.3500 191° South 313 360 11,300 850 Climbing New York TRACON
Wed 07:05:42 PM 40.5167 -74.2667 118° Southeast 305 351 12,700 950 Climbing New York TRACON
Wed 07:06:42 PM 40.5000 -74.1500 101° East 320 368 13,200 842 Climbing New York TRACON
Wed 07:07:36 PM 40.4333 -74.1167 159° South 308 354 14,300 1,342 Climbing New York TRACON
Wed 07:09:14 PM 40.2961 -74.1283 184° South 349 402 16,600 1,157 Climbing Washington Center
Wed 07:09:56 PM 40.2422 -74.1564 202° Southwest 295 339 17,000 235 Climbing New York Center
Wed 07:10:56 PM 40.1578 -74.1928 198° South 310 357 17,000 600 Level New York Center
Wed 07:11:56 PM 40.0819 -74.2217 196° South 316 364 18,200 1,429 Climbing New York Center
Wed 07:13:02 PM 39.9875 -74.2700 201° Southwest 308 354 20,000 1,333 Climbing Washington Center
Wed 07:14:02 PM 39.9194 -74.3336 216° Southwest 303 349 21,000 992 Climbing Washington Center
Wed 07:15:03 PM 39.8492 -74.4022 217° Southwest 313 360 22,000 984 Climbing Washington Center
Wed 07:16:04 PM 39.7792 -74.4792 220° Southwest 324 373 23,000 1,059 Climbing Washington Center
Wed 07:17:02 PM 39.7175 -74.5639 227° Southwest 324 373 24,100 1,068 Climbing Washington Center
Wed 07:18:02 PM 39.6514 -74.6508 225° Southwest 329 379 25,100 984 Climbing Washington Center
Wed 07:19:04 PM 39.5875 -74.7353 226° Southwest 329 379 26,100 1,000 Climbing Washington Center
Wed 07:20:02 PM 39.5236 -74.8222 226° Southwest 329 379 27,100 1,017 Climbing Washington Center
Wed 07:21:02 PM 39.4572 -74.9089 225° Southwest 329 379 28,100 992 Climbing Washington Center
Wed 07:22:03 PM 39.3933 -74.9953 226° Southwest 329 379 29,100 885 Climbing Washington Center
Wed 07:23:04 PM 39.3394 -75.0628 224° Southwest 329 379 29,900 893 Climbing Washington Center
Wed 07:24:04 PM 39.2542 -75.1333 213° Southwest 329 379 30,900 1,017 Climbing Washington Center
Wed 07:25:02 PM 39.1669 -75.1739 200° South 334 384 31,900 1,017 Climbing Washington Center
Wed 07:26:02 PM 39.0753 -75.2067 196° South 334 384 32,900 992 Climbing Washington Center
Wed 07:27:03 PM 38.9900 -75.2472 200° South 339 390 33,900 984 Climbing Washington Center
Wed 07:28:04 PM 38.9025 -75.2822 197° South 334 384 34,900 992 Climbing Washington Center
Wed 07:29:04 PM 38.8211 -75.3172 199° South 324 373 35,900 508 Climbing Washington Center
Wed 07:30:02 PM 38.7294 -75.3469 194° South 324 373 35,900  Level Washington Center
Wed 07:31:02 PM 38.6400 -75.3922 202° Southwest 334 384 35,900  Level Washington Center
Wed 07:32:03 PM 38.5442 -75.4325 198° South 350 403 35,900 344 Level Washington Center
Wed 07:33:04 PM 38.4461 -75.4725 198° South 364 419 36,600 857 Climbing Washington Center
Wed 07:34:02 PM 38.3567 -75.5097 198° South 358 412 37,600 1,169 Climbing Washington Center
Wed 07:35:02 PM 38.2669 -75.5653 206° Southwest 348 400 38,900 992 Climbing Washington Center
Wed 07:36:03 PM 38.1897 -75.6208 209° Southwest 326 375 39,600 541 Climbing Washington Center
Wed 07:37:04 PM 38.1125 -75.6761 209° Southwest 326 375 40,000 202 Climbing Washington Center
Wed 07:38:02 PM 38.0522 -75.7208 210° Southwest 326 375 40,000 -50 Level Washington Center
Wed 07:39:03 PM 37.9644 -75.7919 213° Southwest 326 375 39,900  Descending Washington Center
Wed 07:40:04 PM 37.8683 -75.8494 205° Southwest 338 389 40,000 50 Climbing Washington Center
Wed 07:41:02 PM 37.7828 -75.9125 210° Southwest 351 404 40,000 -51 Level Washington Center
Wed 07:42:02 PM 37.7094 -75.9750 214° Southwest 356 410 39,900 -50 Descending Washington Center
Wed 07:43:03 PM 37.6197 -76.0350 208° Southwest 361 415 39,900  Level Washington Center
Wed 07:44:04 PM 37.5339 -76.0947 209° Southwest 361 415 39,900  Level Washington Center
Wed 07:45:02 PM 37.4439 -76.1569 209° Southwest 361 415 39,900 50 Level Washington Center
Wed 07:46:03 PM 37.3414 -76.2214 207° Southwest 368 423 40,000 49 Climbing Washington Center
Wed 07:47:04 PM 37.2536 -76.2833 209° Southwest 373 429 40,000 -202 Level Washington Center
Wed 07:48:02 PM 37.1614 -76.3425 207° Southwest 373 429 39,600 -1,017 Descending Washington Center
Wed 07:49:02 PM 37.0711 -76.4092 211° Southwest 373 429 38,000 -1,587 Descending Washington Center
Wed 07:50:03 PM 36.9811 -76.4733 210° Southwest 373 429 36,400 -1,328 Descending Washington Center
Wed 07:51:04 PM 36.8889 -76.5372 209° Southwest 373 429 35,300 -1,059 Descending Washington Center
Wed 07:52:02 PM 36.7944 -76.5983 207° Southwest 373 429 34,300 -655 Descending Washington Center
Wed 07:53:03 PM 36.7042 -76.6644 210° Southwest 373 429 34,000 -148 Descending Washington Center
Wed 07:54:04 PM 36.6075 -76.7331 210° Southwest 385 443 34,000 -151 Level Washington Center
Wed 07:55:02 PM 36.5131 -76.7989 209° Southwest 391 450 33,700 -655 Descending Washington Center
Wed 07:56:03 PM 36.4142 -76.8644 208° Southwest 398 458 32,700 -843 Descending Washington Center
Wed 07:57:03 PM 36.3156 -76.9297 208° Southwest 403 464 32,000 -353 Descending Washington Center
Wed 07:58:02 PM 36.2167 -76.9950 208° Southwest 403 464 32,000  Level Washington Center
Wed 07:59:02 PM 36.1200 -77.0603 209° Southwest 403 464 32,000  Level Washington Center
Wed 08:00:03 PM 36.0253 -77.1228 208° Southwest 398 458 32,000 -344 Level Washington Center
Wed 08:01:04 PM 35.9431 -77.1828 211° Southwest 398 458 31,300 -756 Descending Washington Center
Wed 08:02:02 PM 35.8442 -77.2500 209° Southwest 398 458 30,500 -661 Descending Washington Center
Wed 08:03:02 PM 35.7347 -77.3217 208° Southwest 405 466 30,000 -248 Descending Washington Center
Wed 08:04:03 PM 35.6356 -77.3861 208° Southwest 413 475 30,000  Level Washington Center
Wed 08:05:04 PM 35.5386 -77.4503 208° Southwest 407 468 30,000  Level Washington Center
Wed 08:06:02 PM 35.4436 -77.5144 209° Southwest 407 468 30,000 -100 Level Washington Center
Wed 08:07:04 PM 35.3508 -77.5783 209° Southwest 396 456 29,800 -1,050 Descending Washington Center
Wed 08:08:02 PM 35.2681 -77.6678 221° Southwest 396 456 27,900 -2,067 Descending Washington Center
Wed 08:09:03 PM 35.1831 -77.7547 220° Southwest 401 461 25,700 -1,869 Descending Washington Center
Wed 08:10:04 PM 35.1000 -77.8414 220° Southwest 401 461 24,100 -1,160 Descending Washington Center
Wed 08:11:02 PM 35.0233 -77.9203 220° Southwest 389 448 23,400 -605 Descending Washington Center
Wed 08:12:03 PM 34.9467 -77.9967 219° Southwest 374 430 22,900 -595 Descending Washington Center
Wed 08:13:03 PM 34.8678 -78.0803 221° Southwest 374 430 22,200 -446 Descending Washington Center
Wed 08:14:04 PM 34.7889 -78.1664 222° Southwest 374 430 22,000 -101 Descending Washington Center
Wed 08:15:02 PM 34.7119 -78.2450 220° Southwest 369 425 22,000  Level Washington Center
Wed 08:16:57 PM 34.5697 -78.3919 220° Southwest 365 420 22,000  Level Jacksonville Center
Wed 08:17:57 PM 34.4947 -78.4539 214° Southwest 365 420 22,000  Level Jacksonville Center
Wed 08:18:57 PM 34.4164 -78.5433 223° Southwest 365 420 22,000  Level Jacksonville Center
Wed 08:19:57 PM 34.3400 -78.6203 220° Southwest 365 420 22,000  Level Jacksonville Center
Wed 08:20:57 PM 34.3017 -78.7250 246° West 347 399 22,000  Level Jacksonville Center
Wed 08:21:57 PM 34.2911 -78.8486 264° West 344 396 22,000  Level Jacksonville Center
Wed 08:22:57 PM 34.2825 -78.9747 265° West 360 414 22,000  Level Jacksonville Center
Wed 08:23:57 PM 34.2717 -79.0958 264° West 367 422 22,000  Level Jacksonville Center
Wed 08:24:57 PM 34.2814 -79.2161 276° West 367 422 22,000  Level Jacksonville Center
Wed 08:25:57 PM 34.3286 -79.3272 297° West 359 413 22,000  Level Jacksonville Center
Wed 08:26:57 PM 34.3644 -79.4214 295° West 364 419 22,000 -100 Level Jacksonville Center
Wed 08:27:57 PM 34.4153 -79.5300 300° West 364 419 21,800 -900 Descending Jacksonville Center
Wed 08:28:57 PM 34.4664 -79.6439 299° West 364 419 20,200 -1,700 Descending Jacksonville Center
Wed 08:29:57 PM 34.5131 -79.7556 297° West 370 426 18,400 -1,750 Descending Jacksonville Center
Wed 08:30:57 PM 34.5533 -79.8725 293° West 376 433 16,700 -1,650 Descending Jacksonville Center
Wed 08:31:57 PM 34.6203 -79.9711 310° West 370 426 15,100 -1,587 Descending Jacksonville Center
Wed 08:32:58 PM 34.6542 -80.0836 290° West 370 426 13,500 -1,512 Descending Jacksonville Center
Wed 08:34:00 PM 34.6781 -80.2147 283° West 344 396 12,000 -1,171 Descending Atlanta Center
Wed 08:35:01 PM 34.7003 -80.3247 284° West 342 394 11,100 -492 Descending Atlanta Center
Wed 08:36:02 PM 34.7525 -80.4033 309° West 292 336 11,000 -797 Descending Atlanta Center
Wed 08:37:09 PM 34.8200 -80.4917 313° West 304 350 9,400 -891 Descending Atlanta Center
Wed 08:38:10 PM 34.8783 -80.5650 314° West 299 344 9,100 -209 Descending Atlanta Center
Wed 08:39:04 PM 34.9258 -80.6239 315° West 274 315 9,000  Descending Atlanta Center
Wed 08:40:11 PM 34.9886 -80.7025 314° West 295 339 9,100 47 Climbing Atlanta Center
Wed 08:41:12 PM 35.0489 -80.7761 315° West 302 348 9,100  Level Atlanta Center
Wed 08:42:13 PM 35.1272 -80.8136 339° North 300 345 9,100 -148 Level Atlanta Center
Wed 08:43:14 PM 35.2042 -80.8031 North 293 337 8,800 -1,230 Descending Atlanta Center
Wed 08:44:15 PM 35.2583 -80.7297 48° Northeast 294 338 6,600 -2,191 Descending Atlanta Center
Wed 08:45:09 PM 35.3203 -80.6992 22° Northeast 280 322 4,600 -1,339 Descending Atlanta Center
Wed 08:46:16 PM 35.3369 -80.7750 285° West 224 258 3,900 -797 Descending Atlanta Center
Wed 08:47:17 PM 35.2986 -80.8272 228° Southwest 176 203 2,900 -879 Descending Atlanta Center
Wed 08:48:12 PM 35.2744 -80.8614 229° Southwest 138 159 2,200 -626 Descending Atlanta Center
Wed 08:49:12 PM 35.2522 -80.8903 227° Southwest 96 110 1,700 -520 Descending Atlanta Center
Wed 08:50:19 PM 35.2342 -80.9189 232° Southwest 97 112 1,100 -537 Descending Atlanta Center
Wed 08:52:00 PM 35.2000 -80.9333 180° South  Level FlightAware Approximate
Wed 08:59:00 PM 35.2137 -80.9491 180° South  Level Estimated

Login

Don't have an account? Register now (free) for customized features, flight alerts, and more!